createdAt,value
2022-12-14T00:01:23.408Z,-1.80
2022-12-14T00:03:51.045Z,-1.80
2022-12-14T00:06:20.279Z,-1.80
2022-12-14T00:08:51.379Z,-1.80
2022-12-14T00:11:19.818Z,-1.70
2022-12-14T00:13:53.650Z,-1.70
2022-12-14T00:16:21.187Z,-1.70
2022-12-14T00:18:51.168Z,-1.70
2022-12-14T00:21:18.311Z,-1.70
2022-12-14T00:23:46.446Z,-1.70
2022-12-14T00:26:16.663Z,-1.70
2022-12-14T00:28:44.635Z,-1.70
2022-12-14T00:31:11.916Z,-1.80
2022-12-14T00:33:39.291Z,-1.80
2022-12-14T00:36:08.026Z,-1.80
2022-12-14T00:38:35.375Z,-1.80
2022-12-14T00:41:02.698Z,-1.80
2022-12-14T00:43:31.018Z,-1.80
2022-12-14T00:45:58.262Z,-1.80
2022-12-14T00:48:26.434Z,-1.80
2022-12-14T00:50:54.998Z,-1.80
2022-12-14T00:53:22.409Z,-1.70
2022-12-14T00:55:50.911Z,-1.70
2022-12-14T00:58:19.951Z,-1.70
2022-12-14T01:00:57.926Z,-1.70
2022-12-14T01:03:25.335Z,-1.70
2022-12-14T01:05:52.623Z,-1.70
2022-12-14T01:08:20.616Z,-1.70
2022-12-14T01:10:47.567Z,-1.70
2022-12-14T01:13:14.559Z,-1.70
2022-12-14T01:15:41.833Z,-1.70
2022-12-14T01:18:10.228Z,-1.60
2022-12-14T01:20:37.123Z,-1.60
2022-12-14T01:23:04.177Z,-1.50
2022-12-14T01:25:31.052Z,-1.50
2022-12-14T01:27:57.964Z,-1.50
2022-12-14T01:30:25.094Z,-1.60
2022-12-14T01:32:52.362Z,-1.60
2022-12-14T01:35:20.689Z,-1.60
2022-12-14T01:37:49.124Z,-1.60
2022-12-14T01:40:16.743Z,-1.60
2022-12-14T01:42:43.732Z,-1.60
2022-12-14T01:45:19.360Z,-1.60
2022-12-14T01:47:50.989Z,-1.50
2022-12-14T01:50:27.219Z,-1.50
2022-12-14T01:52:58.594Z,-1.60
2022-12-14T01:55:29.211Z,-1.60
2022-12-14T01:58:02.068Z,-1.50
2022-12-14T02:00:29.204Z,-1.50
2022-12-14T02:02:59.821Z,-1.60
2022-12-14T02:05:30.408Z,-1.60
2022-12-14T02:07:57.635Z,-1.60
2022-12-14T02:10:27.408Z,-1.60
2022-12-14T02:13:00.585Z,-1.50
2022-12-14T02:15:28.139Z,-1.50
2022-12-14T02:17:56.648Z,-1.40
2022-12-14T02:20:29.370Z,-1.40
2022-12-14T02:23:32.926Z,-1.40
2022-12-14T02:26:37.832Z,-1.40
2022-12-14T02:29:48.451Z,-1.40
2022-12-14T02:32:26.221Z,-1.40
2022-12-14T02:34:59.668Z,-1.40
2022-12-14T02:37:35.420Z,-1.40
2022-12-14T02:40:17.586Z,-1.40
2022-12-14T02:42:54.360Z,-1.40
2022-12-14T02:45:27.825Z,-1.40
2022-12-14T02:48:01.012Z,-1.50
2022-12-14T02:50:39.606Z,-1.50
2022-12-14T02:53:14.788Z,-1.50
2022-12-14T02:55:46.169Z,-1.50
2022-12-14T02:58:19.626Z,-1.50
2022-12-14T03:00:49.174Z,-1.50
2022-12-14T03:03:16.436Z,-1.50
2022-12-14T03:05:43.416Z,-1.50
2022-12-14T03:08:13.906Z,-1.50
2022-12-14T03:10:46.656Z,-1.50
2022-12-14T03:13:19.716Z,-1.50
2022-12-14T03:15:54.606Z,-1.50
2022-12-14T03:18:24.079Z,-1.50
2022-12-14T03:20:55.318Z,-1.50
2022-12-14T03:23:27.323Z,-1.50
2022-12-14T03:25:59.472Z,-1.50
2022-12-14T03:28:30.684Z,-1.50
2022-12-14T03:31:05.842Z,-1.50
2022-12-14T03:33:35.672Z,-1.50
2022-12-14T03:36:09.108Z,-1.50
2022-12-14T03:38:40.501Z,-1.50
2022-12-14T03:41:15.799Z,-1.40
2022-12-14T03:43:53.642Z,-1.40
2022-12-14T03:46:33.335Z,-1.40
2022-12-14T03:49:07.351Z,-1.50
2022-12-14T03:51:43.444Z,-1.50
2022-12-14T03:54:17.054Z,-1.50
2022-12-14T03:56:52.913Z,-1.50
2022-12-14T03:59:28.245Z,-1.50
2022-12-14T04:02:02.557Z,-1.50
2022-12-14T04:04:34.935Z,-1.50
2022-12-14T04:07:10.121Z,-1.50
2022-12-14T04:09:43.889Z,-1.50
2022-12-14T04:12:35.539Z,-1.50
2022-12-14T04:15:26.819Z,-1.50
2022-12-14T04:18:18.348Z,-1.50
2022-12-14T04:20:49.254Z,-1.50
2022-12-14T04:23:39.157Z,-1.50
2022-12-14T04:26:09.422Z,-1.50
2022-12-14T04:28:59.841Z,-1.50
2022-12-14T04:31:30.795Z,-1.40
2022-12-14T04:34:02.986Z,-1.50
2022-12-14T04:36:35.961Z,-1.50
2022-12-14T04:39:06.630Z,-1.50
2022-12-14T04:41:37.913Z,-1.40
2022-12-14T04:44:09.774Z,-1.40
2022-12-14T04:46:40.750Z,-1.40
2022-12-14T04:49:18.335Z,-1.40
2022-12-14T04:51:49.852Z,-1.40
2022-12-14T04:54:21.750Z,-1.30
2022-12-14T04:56:55.814Z,-1.30
2022-12-14T04:59:23.858Z,-1.30
2022-12-14T05:02:00.627Z,-1.20
2022-12-14T05:04:54.923Z,-1.20
2022-12-14T05:07:36.747Z,-1.20
2022-12-14T05:10:11.243Z,-1.10
2022-12-14T05:12:44.863Z,-1.10
2022-12-14T05:15:15.670Z,-1.10
2022-12-14T05:17:43.100Z,-1.10
2022-12-14T05:20:16.631Z,-1.10
2022-12-14T05:22:43.613Z,-1.10
2022-12-14T05:25:10.548Z,-1.10
2022-12-14T05:27:37.628Z,-1.10
2022-12-14T05:30:06.576Z,-1.10
2022-12-14T05:32:33.917Z,-1.10
2022-12-14T05:35:01.707Z,-1.10
2022-12-14T05:37:30.021Z,-1.00
2022-12-14T05:39:56.859Z,-1.00
2022-12-14T05:42:23.910Z,-1.00
2022-12-14T05:44:50.760Z,-1.00
2022-12-14T05:47:18.363Z,-0.90
2022-12-14T05:49:45.281Z,-0.90
2022-12-14T05:52:16.577Z,-0.80
2022-12-14T05:54:44.916Z,-0.70
2022-12-14T05:57:12.961Z,-0.70
2022-12-14T05:59:39.865Z,-0.70
2022-12-14T06:02:06.898Z,-0.70
2022-12-14T06:04:34.005Z,-0.70
2022-12-14T06:07:01.061Z,-0.70
2022-12-14T06:09:28.035Z,-0.70
2022-12-14T06:11:56.290Z,-0.70
2022-12-14T06:14:24.656Z,-0.60
2022-12-14T06:16:51.564Z,-0.60
2022-12-14T06:19:18.996Z,-0.50
2022-12-14T06:21:45.954Z,-0.50
2022-12-14T06:24:14.017Z,-0.50
2022-12-14T06:26:41.635Z,-0.50
2022-12-14T06:29:15.451Z,-0.40
2022-12-14T06:31:42.580Z,-0.40
2022-12-14T06:34:09.973Z,-0.50
2022-12-14T06:36:38.603Z,-0.50
2022-12-14T06:39:07.534Z,-0.50
2022-12-14T06:41:34.504Z,-0.50
2022-12-14T06:44:05.445Z,-0.50
2022-12-14T06:46:36.258Z,-0.50
2022-12-14T06:49:04.348Z,-0.40
2022-12-14T06:51:32.108Z,-0.40
2022-12-14T06:53:59.268Z,-0.50
2022-12-14T06:56:27.596Z,-0.50
2022-12-14T06:58:55.035Z,-0.60
2022-12-14T07:01:24.346Z,-0.60
2022-12-14T07:03:54.803Z,-0.60
2022-12-14T07:06:22.082Z,-0.60
2022-12-14T07:08:49.433Z,-0.60
2022-12-14T07:11:17.464Z,-0.60
2022-12-14T07:13:45.021Z,-0.60
2022-12-14T07:16:18.209Z,-0.60
2022-12-14T07:18:45.800Z,-0.50
2022-12-14T07:21:16.126Z,-0.60
2022-12-14T07:23:44.887Z,-0.60
2022-12-14T07:26:14.087Z,-0.60
2022-12-14T07:28:41.923Z,-0.60
2022-12-14T07:31:12.404Z,-0.60
2022-12-14T07:33:39.377Z,-0.60
2022-12-14T07:36:08.530Z,-0.60
2022-12-14T07:38:38.777Z,-0.60
2022-12-14T07:41:08.215Z,-0.60
2022-12-14T07:43:35.168Z,-0.60
2022-12-14T07:46:04.014Z,-0.60
2022-12-14T07:48:31.716Z,-0.50
2022-12-14T07:51:03.433Z,-0.50
2022-12-14T07:53:30.903Z,-0.50
2022-12-14T07:56:02.386Z,-0.50
2022-12-14T07:58:30.011Z,-0.50
2022-12-14T08:01:06.796Z,-0.50
2022-12-14T08:03:33.932Z,-0.50
2022-12-14T08:06:04.933Z,-0.50
2022-12-14T08:08:32.988Z,-0.40
2022-12-14T08:11:02.210Z,-0.40
2022-12-14T08:13:30.167Z,-0.30
2022-12-14T08:16:02.629Z,-0.30
2022-12-14T08:18:29.537Z,-0.30
2022-12-14T08:20:56.436Z,-0.30
2022-12-14T08:23:23.407Z,-0.30
2022-12-14T08:25:53.225Z,-0.40
2022-12-14T08:28:22.221Z,-0.40
2022-12-14T08:30:49.244Z,-0.40
2022-12-14T08:33:16.491Z,-0.40
2022-12-14T08:35:43.451Z,-0.30
2022-12-14T08:38:10.358Z,-0.30
2022-12-14T08:40:37.940Z,-0.20
2022-12-14T08:43:05.110Z,-0.20
2022-12-14T08:45:33.713Z,-0.10
2022-12-14T08:48:01.716Z,-0.20
2022-12-14T08:50:32.007Z,-0.10
2022-12-14T08:52:59.334Z,-0.10
2022-12-14T08:55:30.143Z,-0.20
2022-12-14T08:57:58.949Z,-0.10
2022-12-14T09:00:25.827Z,-0.10
2022-12-14T09:02:54.454Z,0.00
2022-12-14T09:05:21.493Z,0.00
2022-12-14T09:07:48.414Z,0.00
2022-12-14T09:10:15.495Z,0.10
2022-12-14T09:12:42.502Z,0.10
2022-12-14T09:15:10.120Z,0.10
2022-12-14T09:17:37.298Z,0.20
2022-12-14T09:20:06.861Z,0.20
2022-12-14T09:22:33.940Z,0.20
2022-12-14T09:25:00.955Z,0.10
2022-12-14T09:27:28.553Z,0.10
2022-12-14T09:29:55.435Z,0.10
2022-12-14T09:32:22.384Z,0.10
2022-12-14T09:34:49.273Z,0.10
2022-12-14T09:37:17.483Z,0.10
2022-12-14T09:39:44.386Z,0.00
2022-12-14T09:42:26.860Z,0.00
2022-12-14T09:45:02.670Z,-0.10
2022-12-14T09:47:37.181Z,-0.10
2022-12-14T09:50:07.161Z,-0.10
2022-12-14T09:52:40.485Z,-0.10
2022-12-14T09:55:18.547Z,-0.10
2022-12-14T09:57:48.017Z,-0.10
2022-12-14T10:00:19.375Z,0.00
2022-12-14T10:03:10.379Z,0.00
2022-12-14T10:05:52.639Z,0.00
2022-12-14T10:08:27.714Z,0.10
2022-12-14T10:11:03.858Z,0.10
2022-12-14T10:13:42.147Z,0.10
2022-12-14T10:16:20.197Z,0.10
2022-12-14T10:19:09.056Z,0.20
2022-12-14T10:21:44.032Z,0.20
2022-12-14T10:24:20.206Z,0.20
2022-12-14T10:26:50.888Z,0.20
2022-12-14T10:29:25.729Z,0.30
2022-12-14T10:31:59.944Z,0.30
2022-12-14T10:34:30.955Z,0.30
2022-12-14T10:37:07.942Z,0.30
2022-12-14T10:39:49.473Z,0.30
2022-12-14T10:42:23.501Z,0.30
2022-12-14T10:45:39.125Z,0.40
2022-12-14T10:47:50.621Z,0.40
2022-12-14T10:50:24.388Z,0.40
2022-12-14T10:52:53.932Z,0.50
2022-12-14T10:55:28.573Z,0.50
2022-12-14T10:57:56.074Z,0.60
2022-12-14T11:00:23.781Z,0.60
2022-12-14T11:02:54.796Z,0.60
2022-12-14T11:05:37.358Z,0.70
2022-12-14T11:08:07.384Z,0.60
2022-12-14T11:10:39.176Z,0.70
2022-12-14T11:13:14.302Z,0.70
2022-12-14T11:15:43.140Z,0.70
2022-12-14T11:18:27.477Z,0.70
2022-12-14T11:20:56.570Z,0.70
2022-12-14T11:23:26.301Z,0.70
2022-12-14T11:25:57.973Z,0.80
2022-12-14T11:28:36.150Z,0.80
2022-12-14T11:31:05.910Z,0.80
2022-12-14T11:33:37.642Z,0.80
2022-12-14T11:36:05.941Z,0.80
2022-12-14T11:38:33.483Z,0.80
2022-12-14T11:41:10.695Z,0.80
2022-12-14T11:43:39.348Z,0.80
2022-12-14T11:46:06.641Z,0.80
2022-12-14T11:48:38.339Z,0.80
2022-12-14T11:51:10.834Z,0.90
2022-12-14T11:53:37.819Z,0.90
2022-12-14T11:56:10.730Z,1.00
2022-12-14T11:58:46.397Z,1.00
2022-12-14T12:01:16.293Z,1.00
2022-12-14T12:03:47.523Z,1.00
2022-12-14T12:06:26.609Z,1.10
2022-12-14T12:08:56.801Z,1.10
2022-12-14T12:11:29.495Z,1.20
2022-12-14T12:14:00.142Z,1.20
2022-12-14T12:16:29.012Z,1.20
2022-12-14T12:19:04.076Z,1.30
2022-12-14T12:21:40.038Z,1.30
2022-12-14T12:24:15.110Z,1.40
2022-12-14T12:26:50.122Z,1.40
2022-12-14T12:29:24.123Z,1.40
2022-12-14T12:31:56.615Z,1.40
2022-12-14T12:34:28.955Z,1.50
2022-12-14T12:37:25.319Z,1.50
2022-12-14T12:39:49.077Z,1.50
2022-12-14T12:42:24.537Z,1.60
2022-12-14T12:44:59.568Z,1.60
2022-12-14T12:47:40.061Z,1.60
2022-12-14T12:50:16.118Z,1.70
2022-12-14T12:52:55.407Z,1.60
2022-12-14T12:55:28.107Z,1.60
2022-12-14T12:57:59.094Z,1.60
2022-12-14T13:00:28.308Z,1.70
2022-12-14T13:03:00.561Z,1.70
2022-12-14T13:05:46.279Z,1.70
2022-12-14T13:08:22.305Z,1.70
2022-12-14T13:13:43.335Z,1.80
2022-12-14T13:16:15.494Z,1.90
2022-12-14T13:19:01.824Z,1.90
2022-12-14T13:21:35.107Z,1.90
2022-12-14T13:24:16.727Z,1.90
2022-12-14T13:27:17.169Z,1.90
2022-12-14T13:30:04.518Z,1.90
2022-12-14T13:32:50.161Z,1.90
2022-12-14T13:35:36.823Z,1.90
2022-12-14T13:38:33.559Z,1.90
2022-12-14T13:41:25.042Z,1.80
2022-12-14T13:44:13.523Z,1.80
2022-12-14T13:46:42.096Z,1.80
2022-12-14T13:49:19.680Z,1.80
2022-12-14T13:51:50.242Z,1.70
2022-12-14T13:54:22.684Z,1.70
2022-12-14T13:56:50.053Z,1.70
2022-12-14T13:59:28.512Z,1.60
2022-12-14T14:01:59.783Z,1.70
2022-12-14T14:04:28.283Z,1.70
2022-12-14T14:06:56.382Z,1.70
2022-12-14T14:10:00.740Z,1.70
2022-12-14T14:12:39.306Z,1.70
2022-12-14T14:15:33.028Z,1.70
2022-12-14T14:18:18.029Z,1.70
2022-12-14T14:20:46.669Z,1.60
2022-12-14T14:23:36.089Z,1.60
2022-12-14T14:26:27.874Z,1.60
2022-12-14T14:29:25.751Z,1.60
2022-12-14T14:31:55.720Z,1.60
2022-12-14T14:34:33.711Z,1.60
2022-12-14T14:37:12.965Z,1.50
2022-12-14T14:40:04.600Z,1.50
2022-12-14T14:42:31.894Z,1.60
2022-12-14T14:45:02.499Z,1.60
2022-12-14T14:47:33.529Z,1.50
2022-12-14T14:50:06.604Z,1.50
2022-12-14T14:52:59.775Z,1.50
2022-12-14T14:55:54.063Z,1.40
2022-12-14T14:58:30.339Z,1.30
2022-12-14T15:01:24.941Z,1.30
2022-12-14T15:03:56.257Z,1.40
2022-12-14T15:06:28.131Z,1.30
2022-12-14T15:09:03.155Z,1.30
2022-12-14T15:11:40.611Z,1.30
2022-12-14T15:14:20.465Z,1.20
2022-12-14T15:16:47.476Z,1.10
2022-12-14T15:19:22.925Z,1.10
2022-12-14T15:21:54.244Z,1.00
2022-12-14T15:24:22.582Z,1.00
2022-12-14T15:26:50.140Z,1.00
2022-12-14T15:29:22.550Z,1.00
2022-12-14T15:31:59.030Z,1.00
2022-12-14T15:34:26.991Z,0.90
2022-12-14T15:36:56.061Z,0.90
2022-12-14T15:39:32.968Z,0.90
2022-12-14T15:42:05.414Z,0.90
2022-12-14T15:44:32.349Z,0.90
2022-12-14T15:46:59.313Z,0.80
2022-12-14T15:49:26.329Z,0.90
2022-12-14T15:51:55.940Z,0.90
2022-12-14T15:54:25.792Z,0.90
2022-12-14T15:56:56.644Z,1.00
2022-12-14T15:59:29.312Z,1.00
2022-12-14T16:02:07.444Z,1.00
2022-12-14T16:04:36.953Z,1.00
2022-12-14T16:07:13.756Z,1.10
2022-12-14T16:09:44.160Z,1.10
2022-12-14T16:12:21.310Z,1.10
2022-12-14T16:14:54.305Z,1.10
2022-12-14T16:17:26.404Z,1.00
2022-12-14T16:19:59.507Z,1.00
2022-12-14T16:22:29.619Z,1.00
2022-12-14T16:25:11.994Z,1.00
2022-12-14T16:27:41.286Z,1.00
2022-12-14T16:30:18.397Z,1.10
2022-12-14T16:32:49.808Z,1.10
2022-12-14T16:35:21.260Z,1.10
2022-12-14T16:37:52.231Z,1.10
2022-12-14T16:40:30.375Z,1.10
2022-12-14T16:42:57.416Z,1.00
2022-12-14T16:46:07.927Z,0.90
2022-12-14T16:48:39.529Z,0.90
2022-12-14T16:51:18.717Z,1.00
2022-12-14T16:53:56.287Z,1.00
2022-12-14T16:56:25.763Z,1.00
2022-12-14T16:58:56.371Z,1.00
2022-12-14T17:01:24.036Z,0.90
2022-12-14T17:04:02.523Z,0.90
2022-12-14T17:06:39.784Z,0.90
2022-12-14T17:09:19.995Z,0.90
2022-12-14T17:11:47.825Z,0.90
2022-12-14T17:14:15.729Z,1.00
2022-12-14T17:16:43.847Z,0.90
2022-12-14T17:19:18.732Z,0.80
2022-12-14T17:21:46.152Z,0.80
2022-12-14T17:24:17.303Z,0.80
2022-12-14T17:26:44.890Z,0.80
2022-12-14T17:29:18.449Z,0.80
2022-12-14T17:31:50.025Z,0.80
2022-12-14T17:34:17.940Z,0.70
2022-12-14T17:36:45.472Z,0.70
2022-12-14T17:39:12.545Z,0.80
2022-12-14T17:41:43.116Z,0.80
2022-12-14T17:44:14.367Z,0.90
2022-12-14T17:46:41.632Z,0.90
2022-12-14T17:49:12.202Z,0.90
2022-12-14T17:51:42.146Z,0.80
2022-12-14T17:54:14.666Z,0.80
2022-12-14T17:56:43.414Z,0.80
2022-12-14T17:59:10.435Z,0.70
2022-12-14T18:01:37.716Z,0.80
2022-12-14T18:04:05.159Z,0.80
2022-12-14T18:06:32.099Z,0.80
2022-12-14T18:08:59.016Z,0.90
2022-12-14T18:11:28.912Z,0.90
2022-12-14T18:13:57.169Z,0.90
2022-12-14T18:16:24.628Z,1.00
2022-12-14T18:18:54.258Z,1.00
2022-12-14T18:21:23.509Z,1.00
2022-12-14T18:23:50.847Z,1.00
2022-12-14T18:26:20.949Z,0.90
2022-12-14T18:28:48.973Z,0.90
2022-12-14T18:31:21.358Z,0.90
2022-12-14T18:33:48.377Z,0.90
2022-12-14T18:36:15.897Z,0.90
2022-12-14T18:38:43.135Z,0.80
2022-12-14T18:41:17.394Z,0.90
2022-12-14T18:43:45.000Z,0.90
2022-12-14T18:46:12.071Z,0.90
2022-12-14T18:48:40.515Z,0.90
2022-12-14T18:51:11.056Z,0.80
2022-12-14T18:53:38.084Z,0.80
2022-12-14T18:56:08.747Z,0.80
2022-12-14T18:58:35.799Z,0.80
2022-12-14T19:01:03.064Z,0.80
2022-12-14T19:03:32.581Z,0.70
2022-12-14T19:06:34.935Z,0.80
2022-12-14T19:08:53.947Z,0.80
2022-12-14T19:11:29.281Z,0.80
2022-12-14T19:13:56.253Z,0.80
2022-12-14T19:16:23.685Z,0.80
2022-12-14T19:18:51.175Z,0.70
2022-12-14T19:21:19.812Z,0.70
2022-12-14T19:23:46.949Z,0.60
2022-12-14T19:26:13.925Z,0.70
2022-12-14T19:28:40.972Z,0.70
2022-12-14T19:31:09.758Z,0.70
2022-12-14T19:33:37.838Z,0.60
2022-12-14T19:36:05.454Z,0.60
2022-12-14T19:38:34.579Z,0.60
2022-12-14T19:41:04.469Z,0.60
2022-12-14T19:43:32.015Z,0.60
2022-12-14T19:45:59.281Z,0.60
2022-12-14T19:48:26.280Z,0.60
2022-12-14T19:50:53.252Z,0.70
2022-12-14T19:53:23.698Z,0.60
2022-12-14T19:55:53.145Z,0.70
2022-12-14T19:58:22.191Z,0.70
2022-12-14T20:00:50.077Z,0.70
2022-12-14T20:03:17.233Z,0.70
2022-12-14T20:05:50.375Z,0.70
2022-12-14T20:08:17.357Z,0.70
2022-12-14T20:10:44.449Z,0.70
2022-12-14T20:13:13.009Z,0.70
2022-12-14T20:15:40.275Z,0.60
2022-12-14T20:18:10.022Z,0.50
2022-12-14T20:20:36.992Z,0.50
2022-12-14T20:23:03.914Z,0.60
2022-12-14T20:25:31.418Z,0.60
2022-12-14T20:27:58.273Z,0.60
2022-12-14T20:30:26.822Z,0.70
2022-12-14T20:32:53.722Z,0.70
2022-12-14T20:35:20.640Z,0.70
2022-12-14T20:37:47.879Z,0.60
2022-12-14T20:40:14.929Z,0.60
2022-12-14T20:42:41.817Z,0.50
2022-12-14T20:45:09.372Z,0.60
2022-12-14T20:47:37.641Z,0.50
2022-12-14T20:50:05.282Z,0.50
2022-12-14T20:52:32.194Z,0.50
2022-12-14T20:54:59.115Z,0.50
2022-12-14T20:57:26.653Z,0.50
2022-12-14T20:59:53.797Z,0.50
2022-12-14T21:02:21.004Z,0.50
2022-12-14T21:04:49.422Z,0.50
2022-12-14T21:07:17.122Z,0.60
2022-12-14T21:09:46.035Z,0.50
2022-12-14T21:12:21.805Z,0.50
2022-12-14T21:14:52.165Z,0.50
2022-12-14T21:17:19.924Z,0.50
2022-12-14T21:19:46.906Z,0.50
2022-12-14T21:22:17.082Z,0.50
2022-12-14T21:27:32.311Z,0.50
2022-12-14T21:30:00.460Z,0.40
2022-12-14T21:32:28.215Z,0.40
2022-12-14T21:34:55.185Z,0.40
2022-12-14T21:37:23.865Z,0.40
2022-12-14T21:39:55.070Z,0.40
2022-12-14T21:42:23.044Z,0.50
2022-12-14T21:44:51.666Z,0.50
2022-12-14T21:47:20.304Z,0.50
2022-12-14T21:49:47.770Z,0.40
2022-12-14T21:52:17.430Z,0.40
2022-12-14T21:54:46.110Z,0.40
2022-12-14T21:57:33.097Z,0.40
2022-12-14T22:00:00.218Z,0.40
2022-12-14T22:02:28.069Z,0.40
2022-12-14T22:04:58.046Z,0.30
2022-12-14T22:07:29.789Z,0.30
2022-12-14T22:09:58.177Z,0.40
2022-12-14T22:12:25.393Z,0.30
2022-12-14T22:14:52.289Z,0.30
2022-12-14T22:17:19.410Z,0.40
2022-12-14T22:19:46.375Z,0.40
2022-12-14T22:22:15.140Z,0.50
2022-12-14T22:24:42.317Z,0.50
2022-12-14T22:27:11.320Z,0.50
2022-12-14T22:29:38.271Z,0.60
2022-12-14T22:32:06.131Z,0.60
2022-12-14T22:34:33.004Z,0.60
2022-12-14T22:36:59.907Z,0.60
2022-12-14T22:39:26.758Z,0.60
2022-12-14T22:41:53.839Z,0.50
2022-12-14T22:44:22.135Z,0.50
2022-12-14T22:46:49.940Z,0.50
2022-12-14T22:49:18.313Z,0.50
2022-12-14T22:51:45.519Z,0.50
2022-12-14T22:54:20.847Z,0.50
2022-12-14T22:56:52.690Z,0.50
2022-12-14T22:59:23.661Z,0.50
2022-12-14T23:01:50.789Z,0.50
2022-12-14T23:04:18.190Z,0.50
2022-12-14T23:06:45.423Z,0.50
2022-12-14T23:09:30.839Z,0.50
2022-12-14T23:12:21.614Z,0.50
2022-12-14T23:15:08.994Z,0.50
2022-12-14T23:17:54.497Z,0.50
2022-12-14T23:20:40.014Z,0.50
2022-12-14T23:23:26.129Z,0.40
2022-12-14T23:26:11.923Z,0.40
2022-12-14T23:28:58.362Z,0.40
2022-12-14T23:31:45.339Z,0.40
2022-12-14T23:34:31.281Z,0.30
2022-12-14T23:37:20.434Z,0.40
2022-12-14T23:40:06.198Z,0.40
2022-12-14T23:42:51.771Z,0.30
2022-12-14T23:45:37.241Z,0.30
2022-12-14T23:48:24.179Z,0.30
2022-12-14T23:51:09.887Z,0.40
2022-12-14T23:53:55.261Z,0.30
2022-12-14T23:56:40.842Z,0.30
2022-12-14T23:59:31.542Z,0.30
